Time;durP1;ratioP1;P1;durP2;ratioP2;P2;SDS_P1;SDS_P2;PMS_P1;PMS_P2;Temp;Humidity;BMP_temperature;BMP_pressure;BME280_temperature;BME280_humidity;BME280_pressure;Samples;Min_cycle;Max_cycle;Signal;HPM_P1;HPM_P2
2022/03/05 00:02:24;;;;;;;6.60;5.97;;;2.60;99.90;;;;;;4986459;28;20263;-81
2022/03/05 00:04:51;;;;;;;7.67;6.30;;;2.60;99.90;;;;;;4981119;28;20260;-80
2022/03/05 00:07:19;;;;;;;7.80;6.43;;;2.50;99.90;;;;;;4986278;28;20214;-81
2022/03/05 00:09:46;;;;;;;7.47;5.93;;;2.50;99.90;;;;;;4982331;28;20664;-80
2022/03/05 00:12:13;;;;;;;9.83;5.87;;;2.50;99.90;;;;;;4983123;28;20672;-80
2022/03/05 00:14:42;;;;;;;8.67;6.63;;;2.50;99.90;;;;;;4980021;28;20214;-80
2022/03/05 00:17:08;;;;;;;7.80;5.87;;;2.40;99.90;;;;;;4985403;28;20716;-81
2022/03/05 00:19:35;;;;;;;7.20;6.37;;;2.40;99.90;;;;;;4984731;28;20279;-82
2022/03/05 00:22:02;;;;;;;7.97;6.57;;;2.40;99.90;;;;;;4983861;28;20631;-80
2022/03/05 00:24:29;;;;;;;7.57;6.23;;;2.40;99.90;;;;;;5004791;28;20237;-82
2022/03/05 00:26:56;;;;;;;6.87;5.80;;;2.40;99.90;;;;;;5046602;28;20292;-81
2022/03/05 00:29:24;;;;;;;9.50;7.03;;;2.40;99.90;;;;;;5019120;28;20257;-81
2022/03/05 00:31:52;;;;;;;6.73;6.03;;;2.40;99.90;;;;;;4989921;28;20654;-81
2022/03/05 00:34:19;;;;;;;7.30;6.13;;;2.30;99.90;;;;;;4984874;28;20251;-80
2022/03/05 00:36:46;;;;;;;11.43;6.43;;;2.30;99.90;;;;;;4980517;28;20234;-81
2022/03/05 00:39:12;;;;;;;8.17;6.07;;;2.20;99.90;;;;;;4985809;28;20214;-81
2022/03/05 00:41:39;;;;;;;7.33;5.90;;;2.20;99.90;;;;;;4981735;28;20214;-80
2022/03/05 00:44:06;;;;;;;8.63;5.90;;;2.20;99.90;;;;;;4975443;28;20375;-81
2022/03/05 00:46:32;;;;;;;8.23;5.83;;;2.20;99.90;;;;;;4994409;28;20215;-80
2022/03/05 00:49:00;;;;;;;5.93;5.33;;;2.20;99.90;;;;;;5007901;28;20205;-80
2022/03/05 00:51:27;;;;;;;5.97;5.30;;;2.20;99.90;;;;;;4998541;28;20625;-81
2022/03/05 00:53:54;;;;;;;7.67;5.77;;;2.10;99.90;;;;;;4985642;28;20249;-80
2022/03/05 00:56:20;;;;;;;5.97;5.37;;;2.10;99.90;;;;;;5010947;28;20237;-82
2022/03/05 00:58:47;;;;;;;6.03;5.43;;;2.10;99.90;;;;;;5002562;28;20215;-80
2022/03/05 01:01:14;;;;;;;7.67;5.53;;;2.00;99.90;;;;;;4997109;28;20752;-80
2022/03/05 01:03:41;;;;;;;8.00;5.17;;;2.10;99.90;;;;;;4992838;28;20210;-79
2022/03/05 01:06:09;;;;;;;8.03;5.57;;;2.10;99.90;;;;;;4988164;28;20672;-78
2022/03/05 01:08:35;;;;;;;5.40;4.90;;;2.00;99.90;;;;;;4987282;28;20264;-80
2022/03/05 01:11:08;;;;;;;7.70;5.23;;;2.00;99.90;;;;;;4991183;28;20234;-79
2022/03/05 01:13:35;;;;;;;7.30;5.53;;;2.00;99.90;;;;;;4993585;28;20661;-79
2022/03/05 01:16:04;;;;;;;6.23;5.17;;;2.00;99.90;;;;;;4994107;28;20234;-78
2022/03/05 01:18:31;;;;;;;6.67;4.70;;;2.00;99.90;;;;;;4999743;28;20207;-79
2022/03/05 01:20:58;;;;;;;6.27;4.90;;;2.00;99.90;;;;;;5061659;28;21077;-85
2022/03/05 01:23:26;;;;;;;5.87;4.73;;;1.90;99.90;;;;;;5021015;28;20268;-84
2022/03/05 01:25:53;;;;;;;6.30;4.97;;;1.90;99.90;;;;;;5075099;28;20215;-85
2022/03/05 01:28:19;;;;;;;6.70;5.13;;;1.90;99.90;;;;;;5029290;28;21103;-85
2022/03/05 01:30:46;;;;;;;10.30;5.07;;;1.80;99.90;;;;;;5075648;28;20199;-85
2022/03/05 01:33:15;;;;;;;5.70;4.47;;;1.80;99.90;;;;;;5012424;28;20218;-86
2022/03/05 01:35:42;;;;;;;5.40;4.90;;;1.80;99.90;;;;;;4996570;28;20262;-85
2022/03/05 01:38:09;;;;;;;6.33;4.93;;;1.80;99.90;;;;;;5000574;28;20267;-85
2022/03/05 01:40:38;;;;;;;7.63;5.27;;;1.80;99.90;;;;;;4999261;28;20213;-85
2022/03/05 01:43:05;;;;;;;5.87;4.87;;;1.70;99.90;;;;;;5011309;28;20214;-85
2022/03/05 01:45:32;;;;;;;5.67;4.90;;;1.80;99.90;;;;;;5008400;28;20228;-85
2022/03/05 01:47:59;;;;;;;6.80;4.87;;;1.70;99.90;;;;;;4998582;28;20240;-86
2022/03/05 01:50:27;;;;;;;7.50;5.33;;;1.70;99.90;;;;;;5005409;28;20210;-85
2022/03/05 01:52:53;;;;;;;8.63;5.07;;;1.70;99.90;;;;;;5004220;28;20210;-85
2022/03/05 01:55:20;;;;;;;5.73;4.70;;;1.70;99.90;;;;;;5078441;28;20203;-81
2022/03/05 01:57:48;;;;;;;8.30;5.43;;;1.70;99.90;;;;;;5003706;28;20324;-80
2022/03/05 02:00:15;;;;;;;7.07;4.97;;;1.70;99.90;;;;;;4986373;28;20240;-81
2022/03/05 02:02:45;;;;;;;7.47;5.17;;;1.60;99.90;;;;;;5000823;28;20669;-81
2022/03/05 02:05:13;;;;;;;6.63;4.90;;;1.60;99.90;;;;;;4997541;28;20218;-79
2022/03/05 02:07:40;;;;;;;6.10;4.87;;;1.60;99.90;;;;;;4993981;28;20217;-79
2022/03/05 02:10:08;;;;;;;7.10;5.00;;;1.60;99.90;;;;;;4986432;28;20259;-78
2022/03/05 02:12:37;;;;;;;5.37;4.63;;;1.60;99.90;;;;;;4991899;28;20210;-81
2022/03/05 02:15:07;;;;;;;5.97;4.57;;;1.60;99.90;;;;;;4984488;28;20292;-80
2022/03/05 02:17:34;;;;;;;7.70;4.87;;;1.60;99.90;;;;;;4998558;28;20712;-80
2022/03/05 02:20:01;;;;;;;5.27;4.57;;;1.60;99.90;;;;;;4985253;28;20267;-80
2022/03/05 02:22:29;;;;;;;5.77;4.50;;;1.60;99.90;;;;;;5002273;28;20259;-80
2022/03/05 02:24:58;;;;;;;7.07;4.73;;;1.60;99.90;;;;;;4992080;28;20214;-80
2022/03/05 02:27:25;;;;;;;5.63;4.57;;;1.50;99.90;;;;;;4994087;28;20280;-80
2022/03/05 02:29:52;;;;;;;5.70;4.50;;;1.50;99.90;;;;;;4971907;28;20263;-76
2022/03/05 02:32:19;;;;;;;4.57;4.10;;;1.50;99.90;;;;;;4991778;28;20206;-75
2022/03/05 02:34:46;;;;;;;6.27;4.60;;;1.50;99.90;;;;;;4985107;28;20252;-75
2022/03/05 02:37:13;;;;;;;4.60;4.20;;;1.50;99.90;;;;;;5004958;28;20267;-75
2022/03/05 02:39:41;;;;;;;7.00;4.07;;;1.40;99.90;;;;;;4984353;28;20210;-76
2022/03/05 02:42:08;;;;;;;4.23;3.63;;;1.40;99.90;;;;;;5002179;28;20876;-84
2022/03/05 02:44:35;;;;;;;5.20;4.57;;;1.40;99.90;;;;;;4990202;28;20272;-83
2022/03/05 02:47:03;;;;;;;4.07;3.67;;;1.40;99.90;;;;;;5042587;28;20199;-84
2022/03/05 02:49:29;;;;;;;4.03;3.63;;;1.30;99.90;;;;;;5028085;28;20214;-83
2022/03/05 02:51:57;;;;;;;5.57;3.93;;;1.30;99.90;;;;;;5001084;28;20210;-83
2022/03/05 02:54:24;;;;;;;4.57;3.90;;;1.30;99.90;;;;;;4974427;28;20234;-82
2022/03/05 02:56:52;;;;;;;5.17;3.53;;;1.30;99.90;;;;;;4999698;28;20797;-84
2022/03/05 02:59:19;;;;;;;4.30;3.90;;;1.40;99.90;;;;;;4985955;28;20240;-83
2022/03/05 03:01:46;;;;;;;4.97;3.70;;;1.40;99.90;;;;;;4993268;28;20287;-84
2022/03/05 03:04:13;;;;;;;5.17;4.00;;;1.40;99.90;;;;;;4989647;28;20234;-84
2022/03/05 03:06:39;;;;;;;5.37;3.63;;;1.40;99.90;;;;;;4984771;28;20211;-83
2022/03/05 03:09:06;;;;;;;4.57;3.80;;;1.30;99.90;;;;;;4983393;28;20217;-84
2022/03/05 03:11:33;;;;;;;6.10;3.80;;;1.30;99.90;;;;;;5055386;28;20202;-80
2022/03/05 03:14:01;;;;;;;5.10;3.97;;;1.30;99.90;;;;;;5028571;28;20221;-80
2022/03/05 03:16:29;;;;;;;4.53;4.03;;;1.30;99.90;;;;;;5021005;28;20265;-79
2022/03/05 03:18:56;;;;;;;4.57;3.70;;;1.30;99.90;;;;;;4989121;28;20308;-80
2022/03/05 03:21:22;;;;;;;6.70;3.97;;;1.30;99.90;;;;;;4993675;28;20247;-80
2022/03/05 03:23:49;;;;;;;6.13;3.70;;;1.30;99.90;;;;;;4983034;28;20551;-80
2022/03/05 03:26:15;;;;;;;4.83;3.83;;;1.30;99.90;;;;;;5052853;28;20287;-80
2022/03/05 03:28:42;;;;;;;6.80;4.33;;;1.20;99.90;;;;;;5021677;28;20362;-80
2022/03/05 03:31:10;;;;;;;7.13;3.90;;;1.20;99.90;;;;;;5045859;28;20210;-80
2022/03/05 03:33:37;;;;;;;6.13;3.73;;;1.20;99.90;;;;;;5007849;28;20558;-78
2022/03/05 03:36:06;;;;;;;4.20;3.40;;;1.20;99.90;;;;;;5053310;28;20199;-79
2022/03/05 03:38:33;;;;;;;5.97;3.80;;;1.20;99.90;;;;;;5020678;28;20264;-78
2022/03/05 03:40:59;;;;;;;6.27;3.80;;;1.10;99.90;;;;;;4992747;28;20291;-79
2022/03/05 03:43:26;;;;;;;4.63;3.70;;;1.10;99.90;;;;;;4982626;28;20219;-79
2022/03/05 03:45:53;;;;;;;9.53;3.57;;;1.10;99.90;;;;;;4996631;28;20260;-79
2022/03/05 03:48:21;;;;;;;5.17;4.00;;;1.10;99.90;;;;;;4995397;28;20669;-79
2022/03/05 03:50:48;;;;;;;3.87;3.53;;;1.10;99.90;;;;;;4979996;28;20242;-79
2022/03/05 03:53:14;;;;;;;4.60;3.73;;;1.10;99.90;;;;;;4985940;28;20214;-78
2022/03/05 03:55:41;;;;;;;3.70;3.40;;;1.10;99.90;;;;;;5058744;28;20631;-78
2022/03/05 03:58:07;;;;;;;5.57;4.10;;;1.10;99.90;;;;;;4997555;28;20261;-85
2022/03/05 04:00:35;;;;;;;4.50;4.00;;;1.10;99.90;;;;;;4993896;28;20263;-78
2022/03/05 04:03:02;;;;;;;7.30;4.20;;;1.00;99.90;;;;;;4987359;28;20216;-78
2022/03/05 04:05:30;;;;;;;3.93;3.63;;;1.00;99.90;;;;;;4991717;28;20208;-79
2022/03/05 04:10:42;;;;;;;6.20;3.87;;;1.00;99.90;;;;;;4988491;28;20767;-78
2022/03/05 04:13:08;;;;;;;4.00;3.63;;;1.00;99.90;;;;;;4988588;28;20614;-79
2022/03/05 04:15:35;;;;;;;5.40;4.20;;;1.00;99.90;;;;;;5017483;28;20257;-79
2022/03/05 04:18:02;;;;;;;5.63;4.20;;;1.00;99.90;;;;;;5002037;28;20339;-78
2022/03/05 04:20:30;;;;;;;6.37;4.17;;;1.00;99.90;;;;;;4987562;28;20210;-78
2022/03/05 04:22:58;;;;;;;10.50;4.60;;;0.90;99.90;;;;;;4994439;28;20207;-78
2022/03/05 04:25:25;;;;;;;6.73;4.40;;;0.90;99.90;;;;;;5074802;28;20588;-81
2022/03/05 04:27:51;;;;;;;5.87;3.80;;;0.90;99.90;;;;;;5008020;28;20236;-81
2022/03/05 04:30:18;;;;;;;7.93;4.53;;;0.90;99.90;;;;;;5051654;28;20203;-80
2022/03/05 04:32:45;;;;;;;7.23;4.30;;;0.90;99.90;;;;;;5005868;28;20447;-81
2022/03/05 04:35:12;;;;;;;4.20;3.77;;;0.90;99.90;;;;;;4993264;28;20222;-80
2022/03/05 04:37:40;;;;;;;6.83;4.23;;;0.90;99.90;;;;;;4998840;28;20776;-80
2022/03/05 04:40:09;;;;;;;5.20;3.83;;;0.90;99.90;;;;;;5000013;28;20715;-80
2022/03/05 04:42:35;;;;;;;6.80;4.20;;;0.90;99.90;;;;;;5010221;28;20206;-80
2022/03/05 04:45:03;;;;;;;6.33;4.30;;;0.80;99.90;;;;;;5061770;28;20668;-80
2022/03/05 04:47:30;;;;;;;7.17;4.83;;;0.80;99.90;;;;;;5004926;28;20237;-80
2022/03/05 04:49:56;;;;;;;5.73;4.57;;;0.80;99.90;;;;;;4986362;28;20267;-80
2022/03/05 04:52:23;;;;;;;7.63;4.27;;;0.80;99.90;;;;;;5016831;28;20206;-80
2022/03/05 04:54:51;;;;;;;8.00;4.53;;;0.80;99.90;;;;;;5058254;28;20283;-79
2022/03/05 04:57:19;;;;;;;7.20;4.40;;;0.80;99.90;;;;;;5003482;28;20270;-80
2022/03/05 04:59:45;;;;;;;6.20;4.87;;;0.80;99.90;;;;;;4987783;28;20700;-80
2022/03/05 05:02:12;;;;;;;5.77;4.40;;;0.70;99.90;;;;;;5024823;28;20717;-80
2022/03/05 05:04:38;;;;;;;6.50;4.80;;;0.80;99.90;;;;;;5006660;28;20267;-80
2022/03/05 05:07:05;;;;;;;9.43;4.57;;;0.70;99.90;;;;;;4996646;28;20214;-80
2022/03/05 05:09:32;;;;;;;5.60;4.20;;;0.70;99.90;;;;;;4986165;28;20206;-80
2022/03/05 05:12:00;;;;;;;5.03;4.37;;;0.70;99.90;;;;;;4994195;28;20702;-79
2022/03/05 05:14:26;;;;;;;5.73;4.50;;;0.70;99.90;;;;;;4984909;28;20589;-79
2022/03/05 05:16:53;;;;;;;6.00;4.80;;;0.70;99.90;;;;;;4995082;28;20270;-80
2022/03/05 05:19:27;;;;;;;6.43;4.40;;;0.70;99.90;;;;;;4984393;28;21053;-80
2022/03/05 05:21:55;;;;;;;9.27;4.10;;;0.70;99.90;;;;;;4995752;28;20202;-80
2022/03/05 05:24:21;;;;;;;5.80;4.70;;;0.70;99.90;;;;;;4986203;28;20222;-80
2022/03/05 05:26:48;;;;;;;9.90;3.80;;;0.70;99.90;;;;;;4997241;28;20210;-80
2022/03/05 05:29:17;;;;;;;7.23;4.40;;;0.70;99.90;;;;;;4984194;28;20238;-80
2022/03/05 05:31:44;;;;;;;5.43;4.27;;;0.70;99.90;;;;;;4996627;28;20289;-80
2022/03/05 05:34:11;;;;;;;7.60;4.50;;;0.60;99.90;;;;;;4984479;28;20631;-80
2022/03/05 05:36:38;;;;;;;5.77;4.17;;;0.60;99.90;;;;;;4993489;28;20207;-81
2022/03/05 05:39:05;;;;;;;7.33;5.03;;;0.50;99.90;;;;;;4991444;28;20198;-80
2022/03/05 05:41:32;;;;;;;11.07;5.57;;;0.40;99.90;;;;;;5012121;28;20210;-80
2022/03/05 05:43:59;;;;;;;6.07;5.03;;;0.40;99.90;;;;;;4987230;28;20221;-80
2022/03/05 05:46:27;;;;;;;8.13;5.60;;;0.40;99.90;;;;;;5003083;28;20214;-80
2022/03/05 05:48:54;;;;;;;6.57;4.67;;;0.50;99.90;;;;;;4997214;28;20223;-80
2022/03/05 05:51:21;;;;;;;5.43;4.40;;;0.50;99.90;;;;;;5050617;28;20203;-81
2022/03/05 05:53:47;;;;;;;6.37;4.60;;;0.50;99.90;;;;;;5014544;28;20271;-82
2022/03/05 05:56:14;;;;;;;7.07;4.83;;;0.40;99.90;;;;;;5059499;28;20321;-81
2022/03/05 05:58:40;;;;;;;6.00;4.70;;;0.50;99.90;;;;;;4984764;28;20234;-79
2022/03/05 06:01:07;;;;;;;6.33;4.90;;;0.40;99.90;;;;;;4994419;28;20222;-81
2022/03/05 06:03:35;;;;;;;6.03;4.83;;;0.40;99.90;;;;;;4986032;28;20500;-81
2022/03/05 06:06:05;;;;;;;7.90;5.40;;;0.40;99.90;;;;;;4994643;28;20206;-80
2022/03/05 06:08:32;;;;;;;7.23;5.37;;;0.50;99.90;;;;;;4984430;28;20226;-80
2022/03/05 06:10:59;;;;;;;8.17;5.07;;;0.50;99.90;;;;;;4992166;28;20260;-80
2022/03/05 06:13:26;;;;;;;7.97;5.03;;;0.50;99.90;;;;;;4990684;28;20215;-81
2022/03/05 06:15:52;;;;;;;8.87;5.00;;;0.50;99.90;;;;;;5060402;28;20272;-86
2022/03/05 06:18:19;;;;;;;7.50;5.17;;;0.40;99.90;;;;;;4999024;28;20238;-83
2022/03/05 06:20:47;;;;;;;6.90;5.27;;;0.40;99.90;;;;;;5068995;28;20437;-83
2022/03/05 06:23:14;;;;;;;7.97;5.13;;;0.50;99.90;;;;;;5014631;28;20235;-79
2022/03/05 06:25:41;;;;;;;5.90;4.87;;;0.50;99.90;;;;;;4984470;28;20265;-77
2022/03/05 06:28:07;;;;;;;7.67;5.30;;;0.40;99.90;;;;;;4991229;28;20210;-78
2022/03/05 06:30:34;;;;;;;7.80;5.50;;;0.40;99.90;;;;;;4988776;28;20616;-77
2022/03/05 06:33:01;;;;;;;8.20;4.80;;;0.50;99.90;;;;;;4984445;28;20202;-78
2022/03/05 06:35:28;;;;;;;6.67;5.10;;;0.40;99.90;;;;;;4992379;28;20215;-77
2022/03/05 06:37:56;;;;;;;5.87;5.13;;;0.50;99.90;;;;;;4990286;28;20323;-78
2022/03/05 06:40:22;;;;;;;8.83;5.27;;;0.50;99.90;;;;;;4987839;28;20210;-77
2022/03/05 06:42:49;;;;;;;8.83;5.00;;;0.50;99.90;;;;;;4985347;28;20246;-78
2022/03/05 06:45:16;;;;;;;7.90;4.80;;;0.60;99.90;;;;;;5020354;28;20214;-77
2022/03/05 06:47:42;;;;;;;9.70;5.33;;;0.60;99.90;;;;;;4987083;28;20210;-77
2022/03/05 06:50:12;;;;;;;6.03;5.13;;;0.60;99.90;;;;;;5069049;28;20213;-78
2022/03/05 06:52:38;;;;;;;7.83;4.93;;;0.70;99.90;;;;;;4990178;28;20252;-78
2022/03/05 06:55:09;;;;;;;7.93;4.93;;;0.70;99.90;;;;;;5051823;28;20233;-77
2022/03/05 06:57:36;;;;;;;7.37;4.93;;;0.80;99.90;;;;;;5021914;28;20234;-83
2022/03/05 07:00:03;;;;;;;7.73;5.13;;;0.80;99.90;;;;;;5000443;28;20209;-83
2022/03/05 07:02:30;;;;;;;12.03;5.63;;;0.80;99.90;;;;;;5016433;28;20291;-83
2022/03/05 07:04:56;;;;;;;7.33;5.07;;;0.90;99.90;;;;;;5001790;28;20429;-83
2022/03/05 07:07:23;;;;;;;6.63;4.90;;;1.00;99.90;;;;;;5030466;28;20206;-82
2022/03/05 07:09:51;;;;;;;7.17;4.97;;;1.20;99.90;;;;;;5031547;28;20203;-83
2022/03/05 07:12:19;;;;;;;10.07;5.23;;;1.30;99.90;;;;;;5010607;28;20210;-75
2022/03/05 07:14:48;;;;;;;7.00;4.73;;;1.40;99.90;;;;;;4983151;28;20230;-78
2022/03/05 07:17:15;;;;;;;7.47;4.70;;;1.50;99.90;;;;;;4992503;28;20653;-81
2022/03/05 07:19:42;;;;;;;7.63;4.87;;;1.60;99.90;;;;;;4985740;28;20569;-79
2022/03/05 07:22:09;;;;;;;8.77;5.40;;;1.60;99.90;;;;;;4993071;28;20259;-79
2022/03/05 07:24:36;;;;;;;8.10;5.47;;;1.60;99.90;;;;;;4989975;28;20214;-78
2022/03/05 07:27:03;;;;;;;6.17;4.93;;;1.60;99.90;;;;;;4989702;28;20202;-79
2022/03/05 07:29:31;;;;;;;8.37;5.47;;;1.70;99.90;;;;;;4982826;28;20243;-79
2022/03/05 07:31:58;;;;;;;7.57;5.37;;;1.70;99.90;;;;;;5006491;28;20206;-79
2022/03/05 07:34:26;;;;;;;6.03;5.37;;;1.70;99.90;;;;;;4983124;28;20729;-78
2022/03/05 07:36:53;;;;;;;6.13;5.30;;;1.80;99.90;;;;;;5003486;28;20212;-79
2022/03/05 07:39:19;;;;;;;8.37;5.57;;;1.80;99.90;;;;;;4984016;28;20246;-80
2022/03/05 07:41:46;;;;;;;7.23;5.47;;;1.90;99.90;;;;;;5000524;28;20228;-80
2022/03/05 07:44:13;;;;;;;9.23;5.33;;;1.90;99.90;;;;;;4989377;28;20331;-78
2022/03/05 07:46:41;;;;;;;8.10;5.40;;;2.00;99.90;;;;;;4999120;28;20435;-78
2022/03/05 07:49:07;;;;;;;6.50;5.33;;;2.00;99.90;;;;;;4986629;28;20210;-82
2022/03/05 07:51:37;;;;;;;6.77;5.00;;;2.10;99.90;;;;;;5024240;28;20268;-82
2022/03/05 07:54:04;;;;;;;6.97;5.30;;;2.10;99.90;;;;;;4991296;28;20583;-82
2022/03/05 07:56:31;;;;;;;9.00;5.73;;;2.10;99.90;;;;;;5005556;28;20288;-83
2022/03/05 07:58:58;;;;;;;7.43;5.50;;;2.20;99.90;;;;;;4993823;28;20331;-82
2022/03/05 08:01:25;;;;;;;9.87;6.03;;;2.20;99.90;;;;;;4993841;28;20221;-79
2022/03/05 08:03:53;;;;;;;8.20;6.17;;;2.30;99.90;;;;;;4998910;28;20569;-79
2022/03/05 08:06:20;;;;;;;9.80;6.10;;;2.40;99.90;;;;;;5003096;28;20207;-80
2022/03/05 08:08:46;;;;;;;6.37;5.77;;;2.40;99.90;;;;;;4987419;28;20255;-79
2022/03/05 08:11:13;;;;;;;7.13;5.33;;;2.40;99.90;;;;;;5001648;28;20210;-80
2022/03/05 08:13:40;;;;;;;6.07;5.10;;;2.50;99.90;;;;;;4995796;28;20211;-86
2022/03/05 08:16:07;;;;;;;7.80;5.57;;;2.60;99.90;;;;;;5018685;28;20206;-85
2022/03/05 08:18:34;;;;;;;7.93;6.03;;;2.70;99.90;;;;;;4998469;28;20313;-86
2022/03/05 08:21:07;;;;;;;8.07;6.27;;;2.70;99.90;;;;;;4999858;28;20210;-87
2022/03/05 08:23:33;;;;;;;8.27;6.20;;;2.80;99.90;;;;;;4998525;28;20241;-85
2022/03/05 08:26:00;;;;;;;8.67;5.83;;;2.90;99.90;;;;;;4997044;28;20222;-84
2022/03/05 08:28:27;;;;;;;10.10;5.40;;;3.00;99.90;;;;;;4985780;28;20206;-80
2022/03/05 08:30:53;;;;;;;6.77;5.80;;;3.00;99.90;;;;;;5054837;28;20207;-80
2022/03/05 08:33:21;;;;;;;7.70;5.87;;;3.10;99.90;;;;;;5013778;28;20707;-84
2022/03/05 08:35:48;;;;;;;11.07;6.10;;;3.20;99.90;;;;;;5005251;28;20241;-87
2022/03/05 08:38:16;;;;;;;8.30;5.97;;;3.20;99.90;;;;;;4995858;28;20238;-86
2022/03/05 08:40:43;;;;;;;7.33;5.83;;;3.30;99.90;;;;;;5004965;28;20236;-89
2022/03/05 08:43:10;;;;;;;7.03;5.90;;;3.40;99.90;;;;;;4998345;28;20268;-86
2022/03/05 08:45:36;;;;;;;7.40;6.13;;;3.50;99.90;;;;;;4994227;28;20218;-80
2022/03/05 08:48:04;;;;;;;9.17;6.67;;;3.50;99.90;;;;;;4992942;28;21136;-79
2022/03/05 08:50:30;;;;;;;6.97;5.77;;;3.50;99.90;;;;;;4995507;28;20206;-81
2022/03/05 08:52:57;;;;;;;7.20;6.20;;;3.60;99.90;;;;;;4998103;28;20211;-81
2022/03/05 08:55:25;;;;;;;7.40;6.17;;;3.70;99.90;;;;;;4983363;28;20230;-80
2022/03/05 08:57:52;;;;;;;8.23;6.40;;;3.70;99.90;;;;;;4983827;28;20600;-81
2022/03/05 09:00:19;;;;;;;9.37;6.20;;;3.80;99.90;;;;;;4979211;28;20218;-80
2022/03/05 09:02:47;;;;;;;8.57;6.23;;;3.90;99.90;;;;;;4979300;28;20214;-80
2022/03/05 09:05:15;;;;;;;9.70;6.27;;;4.00;99.90;;;;;;5024639;28;20206;-81
2022/03/05 09:07:42;;;;;;;7.87;6.77;;;4.10;99.90;;;;;;4984939;28;20497;-81
2022/03/05 09:10:09;;;;;;;8.27;6.30;;;4.20;99.90;;;;;;5070836;28;20256;-80
2022/03/05 09:12:37;;;;;;;8.53;6.80;;;4.30;99.90;;;;;;4985589;28;20214;-79
2022/03/05 09:15:05;;;;;;;8.40;6.60;;;4.40;99.90;;;;;;5030861;28;20646;-80
2022/03/05 09:17:33;;;;;;;8.37;6.50;;;4.40;99.90;;;;;;4977214;28;20214;-81
2022/03/05 09:19:59;;;;;;;8.90;6.37;;;4.50;99.90;;;;;;4987835;28;20230;-80
2022/03/05 09:22:26;;;;;;;8.30;7.07;;;4.60;99.90;;;;;;4988460;28;20217;-79
2022/03/05 09:24:53;;;;;;;7.03;6.00;;;4.70;99.90;;;;;;4982892;28;20643;-80
2022/03/05 09:27:20;;;;;;;7.50;6.70;;;4.70;99.90;;;;;;4981045;28;20246;-80
2022/03/05 09:29:48;;;;;;;9.63;6.63;;;4.80;99.90;;;;;;4986998;28;20206;-79
2022/03/05 09:32:14;;;;;;;8.57;6.77;;;4.90;99.90;;;;;;4990603;28;20218;-80
2022/03/05 09:34:41;;;;;;;9.03;6.60;;;5.00;99.90;;;;;;5051298;28;20737;-79
2022/03/05 09:37:08;;;;;;;7.13;6.43;;;5.10;99.90;;;;;;4988878;28;20210;-79
2022/03/05 09:39:36;;;;;;;8.73;7.20;;;5.00;99.90;;;;;;4982971;28;20284;-78
2022/03/05 09:42:05;;;;;;;8.10;6.77;;;5.20;99.90;;;;;;4988123;28;20217;-79
2022/03/05 09:44:32;;;;;;;7.40;6.70;;;5.20;99.90;;;;;;5034784;28;20221;-80
2022/03/05 09:47:01;;;;;;;13.30;7.40;;;5.30;99.90;;;;;;4987117;28;20214;-80
2022/03/05 09:49:29;;;;;;;7.37;6.07;;;5.30;99.90;;;;;;4980258;28;20267;-80
2022/03/05 09:51:59;;;;;;;8.80;6.87;;;5.40;99.90;;;;;;4985892;28;20627;-80
2022/03/05 09:54:28;;;;;;;8.67;7.07;;;5.60;99.90;;;;;;4981238;28;20693;-80
2022/03/05 09:56:54;;;;;;;7.87;7.07;;;5.70;99.90;;;;;;5003805;28;20238;-79
2022/03/05 09:59:22;;;;;;;10.27;7.13;;;5.80;99.90;;;;;;5006278;28;20266;-79
2022/03/05 10:01:49;;;;;;;9.80;6.93;;;5.80;99.90;;;;;;5005056;28;20280;-79
2022/03/05 10:04:22;;;;;;;8.40;7.20;;;5.80;99.90;;;;;;5002979;28;20215;-79
2022/03/05 10:07:10;;;;;;;7.93;6.73;;;5.70;99.90;;;;;;4988177;28;20623;-80
2022/03/05 10:09:37;;;;;;;8.93;6.67;;;5.70;99.90;;;;;;4981040;28;20210;-80
2022/03/05 10:12:25;;;;;;;10.60;6.20;;;5.70;99.90;;;;;;5030698;28;20198;-79
2022/03/05 10:15:11;;;;;;;8.53;6.23;;;5.90;99.90;;;;;;5008550;28;20260;-80
2022/03/05 10:17:49;;;;;;;8.40;6.83;;;6.10;99.90;;;;;;4991039;28;20210;-79
2022/03/05 10:20:18;;;;;;;7.43;6.73;;;6.30;99.90;;;;;;4979436;28;20299;-79
2022/03/05 10:23:01;;;;;;;7.80;6.37;;;6.40;99.90;;;;;;4987957;28;20206;-79
2022/03/05 10:25:30;;;;;;;12.97;7.23;;;6.30;99.90;;;;;;4985239;28;20202;-80
2022/03/05 10:28:06;;;;;;;7.73;6.63;;;6.50;99.90;;;;;;4980895;28;20754;-80
2022/03/05 10:30:34;;;;;;;6.83;6.13;;;6.50;99.90;;;;;;4988589;28;20684;-80
2022/03/05 10:33:01;;;;;;;7.77;7.00;;;6.50;99.90;;;;;;4979756;28;20211;-79
2022/03/05 10:35:29;;;;;;;7.90;6.53;;;6.50;99.90;;;;;;4997202;28;20210;-80
2022/03/05 10:37:55;;;;;;;7.70;6.10;;;6.40;99.90;;;;;;5054203;28;20214;-79
2022/03/05 10:40:27;;;;;;;8.20;7.10;;;6.20;99.90;;;;;;4986471;28;20241;-78
2022/03/05 10:42:53;;;;;;;7.77;6.50;;;6.00;99.90;;;;;;4981085;28;20215;-80
2022/03/05 10:45:22;;;;;;;8.07;6.57;;;5.90;99.90;;;;;;5003345;28;20264;-80
2022/03/05 10:47:49;;;;;;;8.80;7.27;;;6.00;99.90;;;;;;4984985;28;20206;-80
2022/03/05 10:50:23;;;;;;;7.97;7.10;;;5.90;99.90;;;;;;4990113;28;20220;-81
2022/03/05 10:52:53;;;;;;;6.93;6.20;;;5.90;99.90;;;;;;4992729;28;20573;-81
2022/03/05 10:55:22;;;;;;;7.23;6.40;;;5.90;99.90;;;;;;5028025;28;20207;-81
2022/03/05 10:57:57;;;;;;;8.33;6.13;;;5.80;99.90;;;;;;4990918;28;20763;-80
2022/03/05 11:00:24;;;;;;;7.20;6.47;;;6.00;99.90;;;;;;4986719;28;20250;-80
2022/03/05 11:02:51;;;;;;;8.63;6.67;;;6.20;99.90;;;;;;4983598;28;20263;-81
2022/03/05 11:05:19;;;;;;;8.53;6.43;;;6.50;99.90;;;;;;4989692;28;20664;-81
2022/03/05 11:07:47;;;;;;;8.13;5.93;;;6.70;99.90;;;;;;4987400;28;20210;-80
2022/03/05 11:10:18;;;;;;;7.23;5.80;;;6.90;99.90;;;;;;4989208;28;20214;-81
2022/03/05 11:12:51;;;;;;;6.30;5.70;;;7.00;99.90;;;;;;4997352;28;20238;-81
2022/03/05 11:15:18;;;;;;;7.83;5.73;;;7.10;99.90;;;;;;4996080;28;20650;-80
2022/03/05 11:17:45;;;;;;;6.47;5.40;;;7.00;99.90;;;;;;4994745;28;20263;-80
2022/03/05 11:20:12;;;;;;;7.90;5.80;;;7.00;99.90;;;;;;5021566;28;20237;-80
2022/03/05 11:22:41;;;;;;;6.83;6.10;;;7.10;99.90;;;;;;4985786;28;20211;-80
2022/03/05 11:25:11;;;;;;;8.10;6.17;;;7.20;99.90;;;;;;4991935;28;20296;-80
2022/03/05 11:27:39;;;;;;;6.30;5.70;;;7.40;99.90;;;;;;4992594;28;20210;-80
2022/03/05 11:30:08;;;;;;;7.13;6.03;;;7.60;99.90;;;;;;4992382;28;20218;-80
2022/03/05 11:32:37;;;;;;;6.23;5.63;;;7.80;99.90;;;;;;4992042;28;20272;-81
2022/03/05 11:35:18;;;;;;;8.33;5.60;;;7.90;99.90;;;;;;4993098;28;20206;-80
2022/03/05 11:37:47;;;;;;;6.47;5.50;;;8.10;99.90;;;;;;4989407;28;20263;-80
2022/03/05 11:40:36;;;;;;;6.83;6.17;;;8.30;99.90;;;;;;5075744;28;20231;-80
2022/03/05 11:43:19;;;;;;;5.50;4.53;;;8.50;99.90;;;;;;5008506;28;20653;-80
2022/03/05 11:45:57;;;;;;;7.90;5.13;;;8.60;99.90;;;;;;5034917;28;20215;-80
2022/03/05 11:48:36;;;;;;;7.17;5.73;;;8.70;99.90;;;;;;5030309;28;20210;-81
2022/03/05 11:51:09;;;;;;;8.30;6.10;;;8.90;99.90;;;;;;5045361;28;20210;-79
2022/03/05 11:53:35;;;;;;;6.60;5.97;;;9.00;99.90;;;;;;5006669;28;20543;-80
2022/03/05 11:56:21;;;;;;;6.40;5.80;;;9.20;99.90;;;;;;5002475;28;21252;-79
2022/03/05 11:58:49;;;;;;;7.67;5.77;;;9.30;99.90;;;;;;4991875;28;20202;-79
2022/03/05 12:01:35;;;;;;;5.50;5.00;;;9.20;99.90;;;;;;4990823;28;20594;-80
2022/03/05 12:04:18;;;;;;;8.13;5.57;;;9.30;99.90;;;;;;4993315;28;20214;-79
2022/03/05 12:06:46;;;;;;;4.90;4.50;;;9.10;99.90;;;;;;4994315;28;20252;-80
2022/03/05 12:09:32;;;;;;;6.60;5.10;;;8.80;99.90;;;;;;5036113;28;20734;-80
2022/03/05 12:12:00;;;;;;;6.33;5.20;;;8.60;99.90;;;;;;5004061;28;20282;-79
2022/03/05 12:15:00;;;;;;;16.50;5.47;;;8.40;99.90;;;;;;4983357;28;20248;-79
2022/03/05 12:17:33;;;;;;;6.17;4.80;;;8.20;99.90;;;;;;4998684;28;20732;-79
2022/03/05 12:19:59;;;;;;;5.23;4.73;;;8.10;99.90;;;;;;4989616;28;20231;-80
2022/03/05 12:22:26;;;;;;;5.43;4.93;;;7.90;99.90;;;;;;5000003;28;20232;-80
2022/03/05 12:24:53;;;;;;;4.77;4.33;;;7.80;99.90;;;;;;4982107;28;20210;-79
2022/03/05 12:27:20;;;;;;;5.20;4.80;;;7.90;99.90;;;;;;5019362;28;20211;-79
2022/03/05 12:29:47;;;;;;;5.17;4.77;;;8.20;99.90;;;;;;4982283;28;20215;-79
2022/03/05 12:32:14;;;;;;;4.40;4.10;;;8.60;99.90;;;;;;5024421;28;20634;-78
2022/03/05 12:34:42;;;;;;;4.73;4.33;;;8.80;99.90;;;;;;4991960;28;20214;-78
2022/03/05 12:37:09;;;;;;;4.80;4.30;;;9.10;99.90;;;;;;4998959;28;20210;-78
2022/03/05 12:39:42;;;;;;;4.80;4.37;;;9.40;99.90;;;;;;4987491;28;20230;-77
2022/03/05 12:42:10;;;;;;;5.90;4.90;;;9.70;99.90;;;;;;4993055;28;20751;-78
2022/03/05 12:44:37;;;;;;;5.00;4.60;;;9.80;99.90;;;;;;4996622;28;20611;-78
2022/03/05 12:47:04;;;;;;;5.17;4.20;;;9.90;99.90;;;;;;4992295;28;20211;-78
2022/03/05 12:49:31;;;;;;;4.83;4.33;;;9.80;99.90;;;;;;4994919;28;20310;-78
2022/03/05 12:51:59;;;;;;;5.17;4.37;;;9.90;99.90;;;;;;4988793;28;20260;-78
2022/03/05 12:54:26;;;;;;;4.63;4.23;;;10.00;99.90;;;;;;4998232;28;20573;-78
2022/03/05 12:56:55;;;;;;;4.87;4.30;;;9.90;99.90;;;;;;4998276;28;21064;-77
2022/03/05 12:59:22;;;;;;;4.50;4.13;;;9.90;99.90;;;;;;4992101;28;20275;-77
2022/03/05 13:01:51;;;;;;;4.80;4.30;;;9.70;99.90;;;;;;4988726;28;20215;-80
2022/03/05 13:04:18;;;;;;;4.17;3.87;;;9.50;99.90;;;;;;4990105;28;20283;-79
2022/03/05 13:06:46;;;;;;;6.27;4.30;;;9.30;99.90;;;;;;5000971;28;20256;-77